sensor_id;sensor_type;location;lat;lon;timestamp;temperature;humidity
4175;DHT22;2101;48.290;14.382;2024-03-02T00:00:20;7.30;99.90
4175;DHT22;2101;48.290;14.382;2024-03-02T00:02:48;7.20;99.90
4175;DHT22;2101;48.290;14.382;2024-03-02T00:05:19;7.20;99.90
4175;DHT22;2101;48.290;14.382;2024-03-02T00:07:56;7.20;99.90
4175;DHT22;2101;48.290;14.382;2024-03-02T00:10:26;7.10;99.90
4175;DHT22;2101;48.290;14.382;2024-03-02T00:12:57;7.10;99.90
4175;DHT22;2101;48.290;14.382;2024-03-02T00:18:12;7.10;99.90
4175;DHT22;2101;48.290;14.382;2024-03-02T00:20:39;7.10;99.90
4175;DHT22;2101;48.290;14.382;2024-03-02T00:23:07;7.10;99.90
4175;DHT22;2101;48.290;14.382;2024-03-02T00:25:41;7.10;99.90
4175;DHT22;2101;48.290;14.382;2024-03-02T00:28:27;7.10;99.90
4175;DHT22;2101;48.290;14.382;2024-03-02T00:33:34;7.10;99.90
4175;DHT22;2101;48.290;14.382;2024-03-02T00:36:01;7.00;99.90
4175;DHT22;2101;48.290;14.382;2024-03-02T00:38:29;7.10;99.90
4175;DHT22;2101;48.290;14.382;2024-03-02T00:40:58;7.00;99.90
4175;DHT22;2101;48.290;14.382;2024-03-02T00:46:01;7.00;99.90
4175;DHT22;2101;48.290;14.382;2024-03-02T00:48:27;7.00;99.90
4175;DHT22;2101;48.290;14.382;2024-03-02T00:50:54;7.10;99.90
4175;DHT22;2101;48.290;14.382;2024-03-02T00:53:23;7.00;99.90
4175;DHT22;2101;48.290;14.382;2024-03-02T00:55:50;7.00;99.90
4175;DHT22;2101;48.290;14.382;2024-03-02T00:58:16;7.10;99.90
4175;DHT22;2101;48.290;14.382;2024-03-02T01:00:42;7.10;99.90
4175;DHT22;2101;48.290;14.382;2024-03-02T01:03:08;7.10;99.90
4175;DHT22;2101;48.290;14.382;2024-03-02T01:05:34;7.10;99.90
4175;DHT22;2101;48.290;14.382;2024-03-02T01:08:00;7.20;99.90
4175;DHT22;2101;48.290;14.382;2024-03-02T01:10:26;7.10;99.90
4175;DHT22;2101;48.290;14.382;2024-03-02T01:12:52;7.10;99.90
4175;DHT22;2101;48.290;14.382;2024-03-02T01:15:18;7.20;99.90
4175;DHT22;2101;48.290;14.382;2024-03-02T01:17:44;7.20;99.90
4175;DHT22;2101;48.290;14.382;2024-03-02T01:20:10;7.20;99.90
4175;DHT22;2101;48.290;14.382;2024-03-02T01:22:36;7.20;99.90
4175;DHT22;2101;48.290;14.382;2024-03-02T01:25:03;7.10;99.90
4175;DHT22;2101;48.290;14.382;2024-03-02T01:27:29;7.10;99.90
4175;DHT22;2101;48.290;14.382;2024-03-02T01:29:55;7.00;99.90
4175;DHT22;2101;48.290;14.382;2024-03-02T01:32:21;7.00;99.90
4175;DHT22;2101;48.290;14.382;2024-03-02T01:34:47;7.00;99.90
4175;DHT22;2101;48.290;14.382;2024-03-02T01:37:13;7.00;99.90
4175;DHT22;2101;48.290;14.382;2024-03-02T01:39:39;7.00;99.90
4175;DHT22;2101;48.290;14.382;2024-03-02T01:42:05;7.10;99.90
4175;DHT22;2101;48.290;14.382;2024-03-02T01:44:30;7.20;99.90
4175;DHT22;2101;48.290;14.382;2024-03-02T01:46:56;7.20;99.90
4175;DHT22;2101;48.290;14.382;2024-03-02T01:49:22;7.10;99.90
4175;DHT22;2101;48.290;14.382;2024-03-02T01:51:48;7.10;99.90
4175;DHT22;2101;48.290;14.382;2024-03-02T01:54:14;7.10;99.90
4175;DHT22;2101;48.290;14.382;2024-03-02T01:56:40;7.10;99.90
4175;DHT22;2101;48.290;14.382;2024-03-02T01:59:06;7.10;99.90
4175;DHT22;2101;48.290;14.382;2024-03-02T02:01:32;7.20;99.90
4175;DHT22;2101;48.290;14.382;2024-03-02T02:03:58;7.10;99.90
4175;DHT22;2101;48.290;14.382;2024-03-02T02:06:24;7.20;99.90
4175;DHT22;2101;48.290;14.382;2024-03-02T02:08:50;7.20;99.90
4175;DHT22;2101;48.290;14.382;2024-03-02T02:11:16;7.30;99.90
4175;DHT22;2101;48.290;14.382;2024-03-02T02:13:42;7.30;99.90
4175;DHT22;2101;48.290;14.382;2024-03-02T02:16:08;7.30;99.90
4175;DHT22;2101;48.290;14.382;2024-03-02T02:18:35;7.30;99.90
4175;DHT22;2101;48.290;14.382;2024-03-02T02:21:02;7.30;99.90
4175;DHT22;2101;48.290;14.382;2024-03-02T02:23:28;7.30;99.90
4175;DHT22;2101;48.290;14.382;2024-03-02T02:25:53;7.40;99.90
4175;DHT22;2101;48.290;14.382;2024-03-02T02:28:20;7.30;99.90
4175;DHT22;2101;48.290;14.382;2024-03-02T02:30:46;7.40;99.90
4175;DHT22;2101;48.290;14.382;2024-03-02T02:33:12;7.40;99.90
4175;DHT22;2101;48.290;14.382;2024-03-02T02:35:38;7.40;99.90
4175;DHT22;2101;48.290;14.382;2024-03-02T02:38:04;7.30;99.90
4175;DHT22;2101;48.290;14.382;2024-03-02T02:40:30;7.30;99.90
4175;DHT22;2101;48.290;14.382;2024-03-02T02:42:57;7.20;99.90
4175;DHT22;2101;48.290;14.382;2024-03-02T02:45:23;7.10;99.90
4175;DHT22;2101;48.290;14.382;2024-03-02T02:47:49;7.00;99.90
4175;DHT22;2101;48.290;14.382;2024-03-02T02:50:15;6.80;99.90
4175;DHT22;2101;48.290;14.382;2024-03-02T02:52:42;6.80;99.90
4175;DHT22;2101;48.290;14.382;2024-03-02T02:55:10;6.80;99.90
4175;DHT22;2101;48.290;14.382;2024-03-02T02:57:37;6.90;99.90
4175;DHT22;2101;48.290;14.382;2024-03-02T03:00:08;6.90;99.90
4175;DHT22;2101;48.290;14.382;2024-03-02T03:02:43;7.00;99.90
4175;DHT22;2101;48.290;14.382;2024-03-02T03:05:10;7.00;99.90
4175;DHT22;2101;48.290;14.382;2024-03-02T03:07:37;6.90;99.90
4175;DHT22;2101;48.290;14.382;2024-03-02T03:10:05;7.00;99.90
4175;DHT22;2101;48.290;14.382;2024-03-02T03:12:32;7.00;99.90
4175;DHT22;2101;48.290;14.382;2024-03-02T03:14:58;7.00;99.90
4175;DHT22;2101;48.290;14.382;2024-03-02T03:17:24;7.00;99.90
4175;DHT22;2101;48.290;14.382;2024-03-02T03:19:50;7.00;99.90
4175;DHT22;2101;48.290;14.382;2024-03-02T03:22:17;6.90;99.90
4175;DHT22;2101;48.290;14.382;2024-03-02T03:24:43;6.90;99.90
4175;DHT22;2101;48.290;14.382;2024-03-02T03:27:09;6.90;99.90
4175;DHT22;2101;48.290;14.382;2024-03-02T03:29:36;6.80;99.90
4175;DHT22;2101;48.290;14.382;2024-03-02T03:32:03;6.80;99.90
4175;DHT22;2101;48.290;14.382;2024-03-02T03:34:32;6.70;99.90
4175;DHT22;2101;48.290;14.382;2024-03-02T03:36:58;6.70;99.90
4175;DHT22;2101;48.290;14.382;2024-03-02T03:39:24;6.70;99.90
4175;DHT22;2101;48.290;14.382;2024-03-02T03:41:50;6.80;99.90
4175;DHT22;2101;48.290;14.382;2024-03-02T03:44:16;6.70;99.90
4175;DHT22;2101;48.290;14.382;2024-03-02T03:46:42;6.70;99.90
4175;DHT22;2101;48.290;14.382;2024-03-02T03:49:08;6.80;99.90
4175;DHT22;2101;48.290;14.382;2024-03-02T03:51:34;6.70;99.90
4175;DHT22;2101;48.290;14.382;2024-03-02T03:54:01;6.60;99.90
4175;DHT22;2101;48.290;14.382;2024-03-02T03:56:27;6.70;99.90
4175;DHT22;2101;48.290;14.382;2024-03-02T03:58:52;6.60;99.90
4175;DHT22;2101;48.290;14.382;2024-03-02T04:01:18;6.60;99.90
4175;DHT22;2101;48.290;14.382;2024-03-02T04:03:45;6.60;99.90
4175;DHT22;2101;48.290;14.382;2024-03-02T04:06:10;6.60;99.90
4175;DHT22;2101;48.290;14.382;2024-03-02T04:08:36;6.60;99.90
4175;DHT22;2101;48.290;14.382;2024-03-02T04:11:02;6.60;99.90
4175;DHT22;2101;48.290;14.382;2024-03-02T04:13:28;6.60;99.90
4175;DHT22;2101;48.290;14.382;2024-03-02T04:15:54;6.60;99.90
4175;DHT22;2101;48.290;14.382;2024-03-02T04:18:20;6.60;99.90
4175;DHT22;2101;48.290;14.382;2024-03-02T04:20:46;6.60;99.90
4175;DHT22;2101;48.290;14.382;2024-03-02T04:23:11;6.50;99.90
4175;DHT22;2101;48.290;14.382;2024-03-02T04:25:37;6.50;99.90
4175;DHT22;2101;48.290;14.382;2024-03-02T04:28:03;6.50;99.90
4175;DHT22;2101;48.290;14.382;2024-03-02T04:30:29;6.60;99.90
4175;DHT22;2101;48.290;14.382;2024-03-02T04:32:55;6.50;99.90
4175;DHT22;2101;48.290;14.382;2024-03-02T04:35:21;6.50;99.90
4175;DHT22;2101;48.290;14.382;2024-03-02T04:37:47;6.50;99.90
4175;DHT22;2101;48.290;14.382;2024-03-02T04:40:12;6.50;99.90
4175;DHT22;2101;48.290;14.382;2024-03-02T04:42:38;6.50;99.90
4175;DHT22;2101;48.290;14.382;2024-03-02T04:45:04;6.50;99.90
4175;DHT22;2101;48.290;14.382;2024-03-02T04:47:30;6.50;99.90
4175;DHT22;2101;48.290;14.382;2024-03-02T04:49:56;6.50;99.90
4175;DHT22;2101;48.290;14.382;2024-03-02T04:52:22;6.50;99.90
4175;DHT22;2101;48.290;14.382;2024-03-02T04:54:48;6.50;99.90
4175;DHT22;2101;48.290;14.382;2024-03-02T04:57:32;6.50;99.90
4175;DHT22;2101;48.290;14.382;2024-03-02T04:59:58;6.50;99.90
4175;DHT22;2101;48.290;14.382;2024-03-02T05:02:24;6.50;99.90
4175;DHT22;2101;48.290;14.382;2024-03-02T05:04:50;6.50;99.90
4175;DHT22;2101;48.290;14.382;2024-03-02T05:07:16;6.50;99.90
4175;DHT22;2101;48.290;14.382;2024-03-02T05:09:42;6.50;99.90
4175;DHT22;2101;48.290;14.382;2024-03-02T05:12:08;6.50;99.90
4175;DHT22;2101;48.290;14.382;2024-03-02T05:14:55;6.50;99.90
4175;DHT22;2101;48.290;14.382;2024-03-02T05:17:21;6.40;99.90
4175;DHT22;2101;48.290;14.382;2024-03-02T05:19:47;6.50;99.90
4175;DHT22;2101;48.290;14.382;2024-03-02T05:22:13;6.40;99.90
4175;DHT22;2101;48.290;14.382;2024-03-02T05:24:39;6.40;99.90
4175;DHT22;2101;48.290;14.382;2024-03-02T05:27:05;6.40;99.90
4175;DHT22;2101;48.290;14.382;2024-03-02T05:29:33;6.40;99.90
4175;DHT22;2101;48.290;14.382;2024-03-02T05:31:58;6.40;99.90
4175;DHT22;2101;48.290;14.382;2024-03-02T05:34:24;6.40;99.90
4175;DHT22;2101;48.290;14.382;2024-03-02T05:36:50;6.40;99.90
4175;DHT22;2101;48.290;14.382;2024-03-02T05:39:16;6.40;99.90
4175;DHT22;2101;48.290;14.382;2024-03-02T05:41:42;6.50;99.90
4175;DHT22;2101;48.290;14.382;2024-03-02T05:44:08;6.60;99.90
4175;DHT22;2101;48.290;14.382;2024-03-02T05:46:33;6.60;99.90
4175;DHT22;2101;48.290;14.382;2024-03-02T05:49:00;6.60;99.90
4175;DHT22;2101;48.290;14.382;2024-03-02T05:51:26;6.60;99.90
4175;DHT22;2101;48.290;14.382;2024-03-02T05:53:52;6.50;99.90
4175;DHT22;2101;48.290;14.382;2024-03-02T05:56:18;6.40;99.90
4175;DHT22;2101;48.290;14.382;2024-03-02T05:58:44;6.40;99.90
4175;DHT22;2101;48.290;14.382;2024-03-02T06:01:33;6.40;99.90
4175;DHT22;2101;48.290;14.382;2024-03-02T06:03:59;6.40;99.90
4175;DHT22;2101;48.290;14.382;2024-03-02T06:06:25;6.40;99.90
4175;DHT22;2101;48.290;14.382;2024-03-02T06:08:52;6.40;99.90
4175;DHT22;2101;48.290;14.382;2024-03-02T06:11:19;6.40;99.90
4175;DHT22;2101;48.290;14.382;2024-03-02T06:13:45;6.40;99.90
4175;DHT22;2101;48.290;14.382;2024-03-02T06:16:11;6.50;99.90
4175;DHT22;2101;48.290;14.382;2024-03-02T06:18:37;6.50;99.90
4175;DHT22;2101;48.290;14.382;2024-03-02T06:21:03;6.50;99.90
4175;DHT22;2101;48.290;14.382;2024-03-02T06:23:29;6.50;99.90
4175;DHT22;2101;48.290;14.382;2024-03-02T06:25:55;6.60;99.90
4175;DHT22;2101;48.290;14.382;2024-03-02T06:28:21;6.60;99.90
4175;DHT22;2101;48.290;14.382;2024-03-02T06:30:47;6.70;99.90
4175;DHT22;2101;48.290;14.382;2024-03-02T06:33:13;6.70;99.90
4175;DHT22;2101;48.290;14.382;2024-03-02T06:35:38;6.70;99.90
4175;DHT22;2101;48.290;14.382;2024-03-02T06:38:04;6.70;99.90
4175;DHT22;2101;48.290;14.382;2024-03-02T06:40:30;6.70;99.90
4175;DHT22;2101;48.290;14.382;2024-03-02T06:42:56;6.70;99.90
4175;DHT22;2101;48.290;14.382;2024-03-02T06:45:22;6.80;99.90
4175;DHT22;2101;48.290;14.382;2024-03-02T06:47:48;6.80;99.90
4175;DHT22;2101;48.290;14.382;2024-03-02T06:50:14;6.80;99.90
4175;DHT22;2101;48.290;14.382;2024-03-02T06:52:40;6.80;99.90
4175;DHT22;2101;48.290;14.382;2024-03-02T06:55:06;6.90;99.90
4175;DHT22;2101;48.290;14.382;2024-03-02T06:57:32;6.90;99.90
4175;DHT22;2101;48.290;14.382;2024-03-02T06:59:58;6.90;99.90
4175;DHT22;2101;48.290;14.382;2024-03-02T07:02:24;6.90;99.90
4175;DHT22;2101;48.290;14.382;2024-03-02T07:04:54;7.00;99.90
4175;DHT22;2101;48.290;14.382;2024-03-02T07:07:20;7.10;99.90
4175;DHT22;2101;48.290;14.382;2024-03-02T07:09:46;7.10;99.90
4175;DHT22;2101;48.290;14.382;2024-03-02T07:12:13;7.10;99.90
4175;DHT22;2101;48.290;14.382;2024-03-02T07:14:39;7.20;99.90
4175;DHT22;2101;48.290;14.382;2024-03-02T07:17:23;7.20;99.90
4175;DHT22;2101;48.290;14.382;2024-03-02T07:19:50;7.30;99.90
4175;DHT22;2101;48.290;14.382;2024-03-02T07:22:16;7.30;99.90
4175;DHT22;2101;48.290;14.382;2024-03-02T07:24:43;7.30;99.90
4175;DHT22;2101;48.290;14.382;2024-03-02T07:27:09;7.30;99.90
4175;DHT22;2101;48.290;14.382;2024-03-02T07:29:36;7.30;99.90
4175;DHT22;2101;48.290;14.382;2024-03-02T07:32:05;7.50;99.90
4175;DHT22;2101;48.290;14.382;2024-03-02T07:34:31;7.50;99.90
4175;DHT22;2101;48.290;14.382;2024-03-02T07:36:57;7.60;99.90
4175;DHT22;2101;48.290;14.382;2024-03-02T07:39:23;7.70;99.90
4175;DHT22;2101;48.290;14.382;2024-03-02T07:41:49;7.80;99.90
4175;DHT22;2101;48.290;14.382;2024-03-02T07:44:15;7.90;99.90
4175;DHT22;2101;48.290;14.382;2024-03-02T07:46:45;8.00;99.90
4175;DHT22;2101;48.290;14.382;2024-03-02T07:49:13;8.10;99.90
4175;DHT22;2101;48.290;14.382;2024-03-02T07:51:46;8.20;99.90
4175;DHT22;2101;48.290;14.382;2024-03-02T07:54:11;8.20;99.90
4175;DHT22;2101;48.290;14.382;2024-03-02T07:56:37;8.30;99.90
4175;DHT22;2101;48.290;14.382;2024-03-02T07:59:04;8.30;99.90
4175;DHT22;2101;48.290;14.382;2024-03-02T08:01:31;8.40;99.90
4175;DHT22;2101;48.290;14.382;2024-03-02T08:03:58;8.50;99.90
4175;DHT22;2101;48.290;14.382;2024-03-02T08:06:25;8.60;99.90
4175;DHT22;2101;48.290;14.382;2024-03-02T08:08:57;8.80;99.90
4175;DHT22;2101;48.290;14.382;2024-03-02T08:11:23;8.90;99.90
4175;DHT22;2101;48.290;14.382;2024-03-02T08:13:51;9.00;99.90
4175;DHT22;2101;48.290;14.382;2024-03-02T08:16:18;9.10;99.90
4175;DHT22;2101;48.290;14.382;2024-03-02T08:18:50;9.30;99.90
4175;DHT22;2101;48.290;14.382;2024-03-02T08:21:17;9.30;99.90
4175;DHT22;2101;48.290;14.382;2024-03-02T08:23:43;9.30;99.90
4175;DHT22;2101;48.290;14.382;2024-03-02T08:26:11;9.40;99.90
4175;DHT22;2101;48.290;14.382;2024-03-02T08:28:58;9.40;99.90
4175;DHT22;2101;48.290;14.382;2024-03-02T08:31:24;9.30;99.90
4175;DHT22;2101;48.290;14.382;2024-03-02T08:34:05;9.30;99.90
4175;DHT22;2101;48.290;14.382;2024-03-02T08:37:11;9.20;99.90
4175;DHT22;2101;48.290;14.382;2024-03-02T08:39:37;9.20;99.90
4175;DHT22;2101;48.290;14.382;2024-03-02T08:42:03;9.10;99.90
4175;DHT22;2101;48.290;14.382;2024-03-02T08:44:30;9.10;99.90
4175;DHT22;2101;48.290;14.382;2024-03-02T08:46:56;9.20;99.90
4175;DHT22;2101;48.290;14.382;2024-03-02T08:49:22;9.20;99.90
4175;DHT22;2101;48.290;14.382;2024-03-02T08:51:48;9.20;99.90
4175;DHT22;2101;48.290;14.382;2024-03-02T08:54:21;9.20;99.90
4175;DHT22;2101;48.290;14.382;2024-03-02T08:56:48;9.20;99.90
4175;DHT22;2101;48.290;14.382;2024-03-02T08:59:14;9.20;99.90
4175;DHT22;2101;48.290;14.382;2024-03-02T09:01:40;9.10;99.90
4175;DHT22;2101;48.290;14.382;2024-03-02T09:04:07;9.10;99.90
4175;DHT22;2101;48.290;14.382;2024-03-02T09:06:36;9.30;99.90
4175;DHT22;2101;48.290;14.382;2024-03-02T09:09:02;9.40;99.90
4175;DHT22;2101;48.290;14.382;2024-03-02T09:11:28;9.30;99.90
4175;DHT22;2101;48.290;14.382;2024-03-02T09:13:54;9.40;99.90
4175;DHT22;2101;48.290;14.382;2024-03-02T09:16:22;9.40;99.90
4175;DHT22;2101;48.290;14.382;2024-03-02T09:18:48;9.40;99.90
4175;DHT22;2101;48.290;14.382;2024-03-02T09:21:13;9.50;99.90
4175;DHT22;2101;48.290;14.382;2024-03-02T09:23:40;9.60;99.90
4175;DHT22;2101;48.290;14.382;2024-03-02T09:26:13;9.60;99.90
4175;DHT22;2101;48.290;14.382;2024-03-02T09:28:43;9.50;99.90
4175;DHT22;2101;48.290;14.382;2024-03-02T09:31:09;9.40;99.90
4175;DHT22;2101;48.290;14.382;2024-03-02T09:33:35;9.40;99.90
4175;DHT22;2101;48.290;14.382;2024-03-02T09:36:01;9.30;99.90
4175;DHT22;2101;48.290;14.382;2024-03-02T09:38:26;9.30;99.90
4175;DHT22;2101;48.290;14.382;2024-03-02T09:40:52;9.30;99.90
4175;DHT22;2101;48.290;14.382;2024-03-02T09:43:18;9.50;99.90
4175;DHT22;2101;48.290;14.382;2024-03-02T09:45:45;9.60;99.90
4175;DHT22;2101;48.290;14.382;2024-03-02T09:48:11;9.70;99.90
4175;DHT22;2101;48.290;14.382;2024-03-02T09:50:36;9.80;99.90
4175;DHT22;2101;48.290;14.382;2024-03-02T09:53:03;9.80;99.90
4175;DHT22;2101;48.290;14.382;2024-03-02T09:55:29;9.60;99.90
4175;DHT22;2101;48.290;14.382;2024-03-02T09:57:55;9.70;99.90
4175;DHT22;2101;48.290;14.382;2024-03-02T10:00:21;9.80;99.90
4175;DHT22;2101;48.290;14.382;2024-03-02T10:02:47;9.80;99.90
4175;DHT22;2101;48.290;14.382;2024-03-02T10:05:26;9.70;99.90
4175;DHT22;2101;48.290;14.382;2024-03-02T10:08:02;9.60;99.90
4175;DHT22;2101;48.290;14.382;2024-03-02T10:10:36;9.40;99.90
4175;DHT22;2101;48.290;14.382;2024-03-02T10:13:09;9.40;99.90
4175;DHT22;2101;48.290;14.382;2024-03-02T10:15:36;9.30;99.90
4175;DHT22;2101;48.290;14.382;2024-03-02T10:18:12;9.40;99.90
4175;DHT22;2101;48.290;14.382;2024-03-02T10:20:39;9.30;99.90
4175;DHT22;2101;48.290;14.382;2024-03-02T10:23:13;9.40;99.90
4175;DHT22;2101;48.290;14.382;2024-03-02T10:25:40;9.50;99.90
4175;DHT22;2101;48.290;14.382;2024-03-02T10:28:06;9.60;99.90
4175;DHT22;2101;48.290;14.382;2024-03-02T10:30:34;9.40;99.90
4175;DHT22;2101;48.290;14.382;2024-03-02T10:33:04;9.60;99.90
4175;DHT22;2101;48.290;14.382;2024-03-02T10:35:32;9.50;99.90
4175;DHT22;2101;48.290;14.382;2024-03-02T10:38:04;9.60;99.90
4175;DHT22;2101;48.290;14.382;2024-03-02T10:40:31;9.50;99.90
4175;DHT22;2101;48.290;14.382;2024-03-02T10:42:57;9.50;99.90
4175;DHT22;2101;48.290;14.382;2024-03-02T10:45:24;9.70;99.90
4175;DHT22;2101;48.290;14.382;2024-03-02T10:47:50;9.60;99.90
4175;DHT22;2101;48.290;14.382;2024-03-02T10:50:16;9.60;99.90
4175;DHT22;2101;48.290;14.382;2024-03-02T10:52:43;9.70;99.90
4175;DHT22;2101;48.290;14.382;2024-03-02T10:55:12;9.80;99.90
4175;DHT22;2101;48.290;14.382;2024-03-02T10:57:54;9.80;99.90
4175;DHT22;2101;48.290;14.382;2024-03-02T11:00:24;9.80;99.90
4175;DHT22;2101;48.290;14.382;2024-03-02T11:03:05;9.80;99.90
4175;DHT22;2101;48.290;14.382;2024-03-02T11:05:39;9.90;99.90
4175;DHT22;2101;48.290;14.382;2024-03-02T11:08:12;9.60;99.90
4175;DHT22;2101;48.290;14.382;2024-03-02T11:10:51;9.50;99.90
4175;DHT22;2101;48.290;14.382;2024-03-02T11:13:22;9.70;99.90
4175;DHT22;2101;48.290;14.382;2024-03-02T11:15:53;9.70;99.90
4175;DHT22;2101;48.290;14.382;2024-03-02T11:18:20;9.70;99.90
4175;DHT22;2101;48.290;14.382;2024-03-02T11:20:47;9.70;99.90
4175;DHT22;2101;48.290;14.382;2024-03-02T11:23:13;9.70;99.90
4175;DHT22;2101;48.290;14.382;2024-03-02T11:25:39;9.80;99.90
4175;DHT22;2101;48.290;14.382;2024-03-02T11:28:07;9.80;99.90
4175;DHT22;2101;48.290;14.382;2024-03-02T11:33:07;10.00;99.90
4175;DHT22;2101;48.290;14.382;2024-03-02T11:35:36;10.10;99.90
4175;DHT22;2101;48.290;14.382;2024-03-02T11:38:06;10.10;99.90
4175;DHT22;2101;48.290;14.382;2024-03-02T11:40:32;10.20;99.90
4175;DHT22;2101;48.290;14.382;2024-03-02T11:43:02;10.10;99.90
4175;DHT22;2101;48.290;14.382;2024-03-02T11:45:28;10.10;99.90
4175;DHT22;2101;48.290;14.382;2024-03-02T11:47:55;10.40;99.90
4175;DHT22;2101;48.290;14.382;2024-03-02T11:50:34;10.50;99.90
4175;DHT22;2101;48.290;14.382;2024-03-02T11:53:08;10.40;99.90
4175;DHT22;2101;48.290;14.382;2024-03-02T11:55:35;10.30;99.90
4175;DHT22;2101;48.290;14.382;2024-03-02T11:58:04;10.20;99.90
4175;DHT22;2101;48.290;14.382;2024-03-02T12:00:30;10.30;99.90
4175;DHT22;2101;48.290;14.382;2024-03-02T12:03:05;10.40;99.90
4175;DHT22;2101;48.290;14.382;2024-03-02T12:05:32;10.60;99.90
4175;DHT22;2101;48.290;14.382;2024-03-02T12:08:02;10.50;99.90
4175;DHT22;2101;48.290;14.382;2024-03-02T12:10:28;10.50;99.90
4175;DHT22;2101;48.290;14.382;2024-03-02T12:12:58;10.40;99.90
4175;DHT22;2101;48.290;14.382;2024-03-02T12:15:29;10.40;99.90
4175;DHT22;2101;48.290;14.382;2024-03-02T12:17:56;10.50;99.90
4175;DHT22;2101;48.290;14.382;2024-03-02T12:20:23;10.40;99.90
4175;DHT22;2101;48.290;14.382;2024-03-02T12:22:52;10.60;99.90
4175;DHT22;2101;48.290;14.382;2024-03-02T12:25:20;10.30;99.90
4175;DHT22;2101;48.290;14.382;2024-03-02T12:27:47;10.20;99.90
4175;DHT22;2101;48.290;14.382;2024-03-02T12:30:16;10.50;99.90
4175;DHT22;2101;48.290;14.382;2024-03-02T12:32:42;10.60;99.90
4175;DHT22;2101;48.290;14.382;2024-03-02T12:35:10;10.70;99.90
4175;DHT22;2101;48.290;14.382;2024-03-02T12:37:45;10.90;99.90
4175;DHT22;2101;48.290;14.382;2024-03-02T12:40:13;10.70;99.90
4175;DHT22;2101;48.290;14.382;2024-03-02T12:42:42;10.90;99.90
4175;DHT22;2101;48.290;14.382;2024-03-02T12:45:08;11.00;99.90
4175;DHT22;2101;48.290;14.382;2024-03-02T12:47:34;11.10;99.90
4175;DHT22;2101;48.290;14.382;2024-03-02T12:50:01;10.60;99.90
4175;DHT22;2101;48.290;14.382;2024-03-02T12:52:27;10.90;99.90
4175;DHT22;2101;48.290;14.382;2024-03-02T12:54:53;11.00;99.90
4175;DHT22;2101;48.290;14.382;2024-03-02T12:57:25;11.00;99.90
4175;DHT22;2101;48.290;14.382;2024-03-02T12:59:56;11.20;99.90
4175;DHT22;2101;48.290;14.382;2024-03-02T13:02:22;11.50;99.90
4175;DHT22;2101;48.290;14.382;2024-03-02T13:04:54;11.50;99.90
4175;DHT22;2101;48.290;14.382;2024-03-02T13:07:20;11.20;99.90
4175;DHT22;2101;48.290;14.382;2024-03-02T13:09:52;11.40;99.90
4175;DHT22;2101;48.290;14.382;2024-03-02T13:12:21;11.70;99.90
4175;DHT22;2101;48.290;14.382;2024-03-02T13:14:51;11.20;99.90
4175;DHT22;2101;48.290;14.382;2024-03-02T13:17:19;11.00;99.90
4175;DHT22;2101;48.290;14.382;2024-03-02T13:19:58;10.80;99.90
4175;DHT22;2101;48.290;14.382;2024-03-02T13:22:25;10.90;99.90
4175;DHT22;2101;48.290;14.382;2024-03-02T13:24:52;10.80;99.90
4175;DHT22;2101;48.290;14.382;2024-03-02T13:27:20;10.70;99.90
4175;DHT22;2101;48.290;14.382;2024-03-02T13:29:46;10.60;99.90
4175;DHT22;2101;48.290;14.382;2024-03-02T13:32:16;10.50;99.90
4175;DHT22;2101;48.290;14.382;2024-03-02T13:34:42;10.60;99.90
4175;DHT22;2101;48.290;14.382;2024-03-02T13:37:09;10.70;99.90
4175;DHT22;2101;48.290;14.382;2024-03-02T13:39:35;10.90;99.90
4175;DHT22;2101;48.290;14.382;2024-03-02T13:42:09;11.00;99.90
4175;DHT22;2101;48.290;14.382;2024-03-02T13:44:36;11.00;99.90
4175;DHT22;2101;48.290;14.382;2024-03-02T13:47:03;10.80;99.90
4175;DHT22;2101;48.290;14.382;2024-03-02T13:49:30;10.80;99.90
4175;DHT22;2101;48.290;14.382;2024-03-02T13:52:08;10.80;99.90
4175;DHT22;2101;48.290;14.382;2024-03-02T13:54:45;10.70;99.90
4175;DHT22;2101;48.290;14.382;2024-03-02T13:57:12;10.60;99.90
4175;DHT22;2101;48.290;14.382;2024-03-02T13:59:38;10.60;99.90
4175;DHT22;2101;48.290;14.382;2024-03-02T14:02:05;10.70;99.90
4175;DHT22;2101;48.290;14.382;2024-03-02T14:04:34;10.60;99.90
4175;DHT22;2101;48.290;14.382;2024-03-02T14:07:01;10.50;99.90
4175;DHT22;2101;48.290;14.382;2024-03-02T14:09:27;10.60;99.90
4175;DHT22;2101;48.290;14.382;2024-03-02T14:11:54;10.60;99.90
4175;DHT22;2101;48.290;14.382;2024-03-02T14:14:20;10.40;99.90
4175;DHT22;2101;48.290;14.382;2024-03-02T14:16:46;10.60;99.90
4175;DHT22;2101;48.290;14.382;2024-03-02T14:19:12;10.60;99.90
4175;DHT22;2101;48.290;14.382;2024-03-02T14:21:39;10.50;99.90
4175;DHT22;2101;48.290;14.382;2024-03-02T14:24:05;10.60;99.90
4175;DHT22;2101;48.290;14.382;2024-03-02T14:26:33;10.60;99.90
4175;DHT22;2101;48.290;14.382;2024-03-02T14:29:02;10.70;99.90
4175;DHT22;2101;48.290;14.382;2024-03-02T14:31:29;10.80;99.90
4175;DHT22;2101;48.290;14.382;2024-03-02T14:33:56;11.10;99.90
4175;DHT22;2101;48.290;14.382;2024-03-02T14:36:22;11.10;99.90
4175;DHT22;2101;48.290;14.382;2024-03-02T14:38:49;11.10;99.90
4175;DHT22;2101;48.290;14.382;2024-03-02T14:41:15;11.20;99.90
4175;DHT22;2101;48.290;14.382;2024-03-02T14:43:40;11.10;99.90
4175;DHT22;2101;48.290;14.382;2024-03-02T14:46:06;11.10;99.90
4175;DHT22;2101;48.290;14.382;2024-03-02T14:48:36;11.00;99.90
4175;DHT22;2101;48.290;14.382;2024-03-02T14:51:02;11.30;99.90
4175;DHT22;2101;48.290;14.382;2024-03-02T14:53:28;11.40;99.90
4175;DHT22;2101;48.290;14.382;2024-03-02T14:55:54;11.30;99.90
4175;DHT22;2101;48.290;14.382;2024-03-02T14:58:21;11.30;99.90
4175;DHT22;2101;48.290;14.382;2024-03-02T15:00:47;11.10;99.90
4175;DHT22;2101;48.290;14.382;2024-03-02T15:03:12;11.30;99.90
4175;DHT22;2101;48.290;14.382;2024-03-02T15:05:39;11.20;99.90
4175;DHT22;2101;48.290;14.382;2024-03-02T15:08:06;11.10;99.90
4175;DHT22;2101;48.290;14.382;2024-03-02T15:10:32;11.10;99.90
4175;DHT22;2101;48.290;14.382;2024-03-02T15:12:58;11.10;99.90
4175;DHT22;2101;48.290;14.382;2024-03-02T15:15:25;10.90;99.90
4175;DHT22;2101;48.290;14.382;2024-03-02T15:17:51;10.90;99.90
4175;DHT22;2101;48.290;14.382;2024-03-02T15:20:18;10.90;99.90
4175;DHT22;2101;48.290;14.382;2024-03-02T15:22:46;10.90;99.90
4175;DHT22;2101;48.290;14.382;2024-03-02T15:25:11;10.90;99.90
4175;DHT22;2101;48.290;14.382;2024-03-02T15:27:38;10.80;99.90
4175;DHT22;2101;48.290;14.382;2024-03-02T15:30:06;10.90;99.90
4175;DHT22;2101;48.290;14.382;2024-03-02T15:32:32;10.80;99.90
4175;DHT22;2101;48.290;14.382;2024-03-02T15:34:59;10.90;99.90
4175;DHT22;2101;48.290;14.382;2024-03-02T15:37:25;10.80;99.90
4175;DHT22;2101;48.290;14.382;2024-03-02T15:39:51;10.80;99.90
4175;DHT22;2101;48.290;14.382;2024-03-02T15:42:17;10.70;99.90
4175;DHT22;2101;48.290;14.382;2024-03-02T15:44:43;10.60;99.90
4175;DHT22;2101;48.290;14.382;2024-03-02T15:47:09;10.50;99.90
4175;DHT22;2101;48.290;14.382;2024-03-02T15:49:35;10.40;99.90
4175;DHT22;2101;48.290;14.382;2024-03-02T15:52:01;10.30;99.90
4175;DHT22;2101;48.290;14.382;2024-03-02T15:54:28;10.20;99.90
4175;DHT22;2101;48.290;14.382;2024-03-02T15:56:54;10.10;99.90
4175;DHT22;2101;48.290;14.382;2024-03-02T15:59:20;10.10;99.90
4175;DHT22;2101;48.290;14.382;2024-03-02T16:01:46;10.10;99.90
4175;DHT22;2101;48.290;14.382;2024-03-02T16:04:11;10.00;99.90
4175;DHT22;2101;48.290;14.382;2024-03-02T16:06:37;10.00;99.90
4175;DHT22;2101;48.290;14.382;2024-03-02T16:09:03;10.00;99.90